Saturday, November 18, 2017, 1:15 AM EST
Back to Local

KESN, Easton / Newman Field

Location: Easton, MD, United States Lat: 38.8
Local Time: 1:15 AM EST ( 6:15 GMT) Lon: -76.067
Time Zone: US/Eastern Elev: 72 ft

Show me the last for .
Show Coded

Time T Td Feel RH Dir Speed Gust Alt SLP Vis Weather Sky Remarks
2017-11-18 00:56 33 30 30 88 180° 3 - 30.12 - 10 CLR 6-hr Min Temp (1am): 33.1°F
6-hr Max Temp (1am): 40.1°F
24-hr Min Temp (1am): 33.1°F
24-hr Max Temp (1am): 52.7°F
2017-11-18 00:36 33 30 - 88 - Calm - 30.13 - 10 CLR None
2017-11-18 00:16 34 31 - 89 - Calm - 30.13 - 10 CLR None
2017-11-17 23:56 35 31 - 85 - Calm - 30.14 - 10 CLR None
2017-11-17 23:36 34 31 - 88 - Calm - 30.14 - 10 CLR None
2017-11-17 23:16 34 31 - 87 - Calm - 30.14 - 10 CLR None
2017-11-17 22:56 34 31 - 87 - Calm - 30.14 - 10 CLR None
2017-11-17 22:36 35 31 - 84 - Calm - 30.16 - 10 CLR None
2017-11-17 22:16 36 31 - 82 - Calm - 30.16 - 10 CLR None
2017-11-17 21:56 37 31 - 81 - Calm - 30.16 - 10 CLR None
2017-11-17 21:50 36 30 - 80 - Calm - 30.16 - 10 CLR None
2017-11-17 20:45 37 32 - 80 - Calm - 30.16 - 10 CLR None
2017-11-17 19:50 37 30 - 74 - Calm - 30.17 - 10 CLR None
2017-11-17 18:45 39 30 - 69 - Calm - 30.18 - 10 CLR None
2017-11-17 17:45 41 30 - 65 - Calm - 30.19 - 10 CLR None
2017-11-17 16:50 46 30 - 52 - Calm - 30.18 - 10 SCT100 None
2017-11-17 15:50 48 28 46 45 340° 5 - 30.18 - 10 SCT120 None
2017-11-17 14:50 52 27 - 37 310° 9 - 30.18 - 10 FEW120 None
2017-11-17 13:59 52 28 - 40 300° 5 - 30.18 - 10 FEW100 None
2017-11-17 12:50 50 28 44 43 330° 13 18 30.19 - 10 SCT250 None
2017-11-17 11:50 50 28 43 43 320° 17 23 30.21 - 10 CLR None
2017-11-17 10:50 48 30 41 49 330° 12 21 30.23 - 10 CLR None
2017-11-17 09:50 48 28 41 45 340° 15 22 30.23 - 10 CLR None
2017-11-17 08:50 46 28 39 49 340° 17 22 30.22 - 10 CLR None
2017-11-17 07:50 45 30 37 56 330° 13 18 30.21 - 10 CLR None
2017-11-17 06:50 45 30 37 56 330° 9 17 30.20 - 10 FEW050 None
2017-11-17 05:53 45 30 40 56 310° 9 - 30.18 - 10 FEW150 None
2017-11-17 04:35 45 31 41 57 310° 7 - 30.16 - 10 SCT048 None
2017-11-17 04:16 45 31 38 57 310° 9 16 30.15 - 10 CLR None
2017-11-17 03:56 45 31 37 57 320° 12 17 30.14 - 10 CLR None
2017-11-17 03:36 45 31 38 56 310° 12 17 30.13 - 10 CLR None
2017-11-17 03:16 45 31 38 57 300° 9 16 30.13 - 10 SCT048 None
2017-11-17 02:56 46 31 41 56 300° 8 - 30.14 - 10 SCT048 None
2017-11-17 02:36 46 30 41 54 310° 10 - 30.13 - 10 CLR None
2017-11-17 02:16 46 31 38 56 310° 12 17 30.13 - 10 CLR None
2017-11-17 01:56 45 31 38 56 310° 13 17 30.12 - 10 CLR None
2017-11-17 01:36 45 31 38 56 320° 13 20 30.12 - 10 CLR None
2017-11-17 01:16 45 31 38 56 320° 12 18 30.11 - 10 CLR None

Support USWX by starting your Amazon purchase here.